sensor_id;sensor_type;location;lat;lon;timestamp;temperature;humidity
2977;DHT22;1498;51.500;7.440;2023-02-28T00:02:18;4.40;99.90
2977;DHT22;1498;51.500;7.440;2023-02-28T00:04:43;4.30;99.90
2977;DHT22;1498;51.500;7.440;2023-02-28T00:07:09;4.10;99.90
2977;DHT22;1498;51.500;7.440;2023-02-28T00:09:35;4.20;99.90
2977;DHT22;1498;51.500;7.440;2023-02-28T00:12:00;4.20;99.90
2977;DHT22;1498;51.500;7.440;2023-02-28T00:14:35;4.10;99.90
2977;DHT22;1498;51.500;7.440;2023-02-28T00:17:01;4.00;99.90
2977;DHT22;1498;51.500;7.440;2023-02-28T00:19:26;4.00;99.90
2977;DHT22;1498;51.500;7.440;2023-02-28T00:21:52;3.90;99.90
2977;DHT22;1498;51.500;7.440;2023-02-28T00:24:17;3.90;99.90
2977;DHT22;1498;51.500;7.440;2023-02-28T00:26:43;3.70;99.90
2977;DHT22;1498;51.500;7.440;2023-02-28T00:29:08;3.80;99.90
2977;DHT22;1498;51.500;7.440;2023-02-28T00:31:34;3.80;99.90
2977;DHT22;1498;51.500;7.440;2023-02-28T00:34:00;3.80;99.90
2977;DHT22;1498;51.500;7.440;2023-02-28T00:36:25;3.80;99.90
2977;DHT22;1498;51.500;7.440;2023-02-28T00:38:51;4.00;99.90
2977;DHT22;1498;51.500;7.440;2023-02-28T00:41:17;4.00;99.90
2977;DHT22;1498;51.500;7.440;2023-02-28T00:43:42;3.90;99.90
2977;DHT22;1498;51.500;7.440;2023-02-28T00:46:08;3.90;99.90
2977;DHT22;1498;51.500;7.440;2023-02-28T00:48:34;3.70;99.90
2977;DHT22;1498;51.500;7.440;2023-02-28T00:51:00;3.60;99.90
2977;DHT22;1498;51.500;7.440;2023-02-28T00:53:25;3.60;99.90
2977;DHT22;1498;51.500;7.440;2023-02-28T00:55:51;3.50;99.90
2977;DHT22;1498;51.500;7.440;2023-02-28T00:58:17;3.50;99.90
2977;DHT22;1498;51.500;7.440;2023-02-28T01:00:42;3.50;99.90
2977;DHT22;1498;51.500;7.440;2023-02-28T01:03:08;3.50;99.90
2977;DHT22;1498;51.500;7.440;2023-02-28T01:05:33;3.50;99.90
2977;DHT22;1498;51.500;7.440;2023-02-28T01:07:59;3.50;99.90
2977;DHT22;1498;51.500;7.440;2023-02-28T01:10:25;3.40;99.90
2977;DHT22;1498;51.500;7.440;2023-02-28T01:12:51;3.40;99.90
2977;DHT22;1498;51.500;7.440;2023-02-28T01:15:16;3.40;99.90
2977;DHT22;1498;51.500;7.440;2023-02-28T01:17:42;3.40;99.90
2977;DHT22;1498;51.500;7.440;2023-02-28T01:20:08;3.40;99.90
2977;DHT22;1498;51.500;7.440;2023-02-28T01:22:35;3.40;99.90
2977;DHT22;1498;51.500;7.440;2023-02-28T01:25:00;3.40;99.90
2977;DHT22;1498;51.500;7.440;2023-02-28T01:27:26;3.40;99.90
2977;DHT22;1498;51.500;7.440;2023-02-28T01:29:52;3.40;99.90
2977;DHT22;1498;51.500;7.440;2023-02-28T01:32:17;3.30;99.90
2977;DHT22;1498;51.500;7.440;2023-02-28T01:34:43;3.30;99.90
2977;DHT22;1498;51.500;7.440;2023-02-28T01:37:08;3.30;99.90
2977;DHT22;1498;51.500;7.440;2023-02-28T01:39:34;3.30;99.90
2977;DHT22;1498;51.500;7.440;2023-02-28T01:41:59;3.30;99.90
2977;DHT22;1498;51.500;7.440;2023-02-28T01:47:32;3.20;99.90
2977;DHT22;1498;51.500;7.440;2023-02-28T01:50:01;3.20;99.90
2977;DHT22;1498;51.500;7.440;2023-02-28T01:52:27;3.10;99.90
2977;DHT22;1498;51.500;7.440;2023-02-28T01:54:59;3.10;99.90
2977;DHT22;1498;51.500;7.440;2023-02-28T01:57:32;3.00;99.90
2977;DHT22;1498;51.500;7.440;2023-02-28T02:00:15;3.00;99.90
2977;DHT22;1498;51.500;7.440;2023-02-28T02:02:43;3.00;99.90
2977;DHT22;1498;51.500;7.440;2023-02-28T02:05:17;3.00;99.90
2977;DHT22;1498;51.500;7.440;2023-02-28T02:07:45;3.00;99.90
2977;DHT22;1498;51.500;7.440;2023-02-28T02:10:48;2.90;99.90
2977;DHT22;1498;51.500;7.440;2023-02-28T02:18:40;3.00;99.90
2977;DHT22;1498;51.500;7.440;2023-02-28T02:24:47;3.00;99.90
2977;DHT22;1498;51.500;7.440;2023-02-28T02:27:24;3.00;99.90
2977;DHT22;1498;51.500;7.440;2023-02-28T02:30:20;2.90;99.90
2977;DHT22;1498;51.500;7.440;2023-02-28T02:41:01;3.10;99.90
2977;DHT22;1498;51.500;7.440;2023-02-28T02:44:13;3.10;99.90
2977;DHT22;1498;51.500;7.440;2023-02-28T02:46:44;3.00;99.90
2977;DHT22;1498;51.500;7.440;2023-02-28T02:49:16;2.90;99.90
2977;DHT22;1498;51.500;7.440;2023-02-28T02:51:44;2.80;99.90
2977;DHT22;1498;51.500;7.440;2023-02-28T02:54:20;2.80;99.90
2977;DHT22;1498;51.500;7.440;2023-02-28T02:56:49;2.90;99.90
2977;DHT22;1498;51.500;7.440;2023-02-28T02:59:18;2.90;99.90
2977;DHT22;1498;51.500;7.440;2023-02-28T03:01:50;3.00;99.90
2977;DHT22;1498;51.500;7.440;2023-02-28T03:04:19;3.00;99.90
2977;DHT22;1498;51.500;7.440;2023-02-28T03:06:46;3.10;99.90
2977;DHT22;1498;51.500;7.440;2023-02-28T03:09:11;3.00;99.90
2977;DHT22;1498;51.500;7.440;2023-02-28T03:11:38;3.10;99.90
2977;DHT22;1498;51.500;7.440;2023-02-28T03:14:19;3.00;99.90
2977;DHT22;1498;51.500;7.440;2023-02-28T03:27:42;3.00;99.90
2977;DHT22;1498;51.500;7.440;2023-02-28T03:30:28;2.90;99.90
2977;DHT22;1498;51.500;7.440;2023-02-28T03:33:26;2.90;99.90
2977;DHT22;1498;51.500;7.440;2023-02-28T03:38:35;3.00;99.90
2977;DHT22;1498;51.500;7.440;2023-02-28T05:31:28;2.50;99.90
2977;DHT22;1498;51.500;7.440;2023-02-28T05:33:54;2.60;99.90
2977;DHT22;1498;51.500;7.440;2023-02-28T05:36:20;2.50;99.90
2977;DHT22;1498;51.500;7.440;2023-02-28T05:38:47;2.40;99.90
2977;DHT22;1498;51.500;7.440;2023-02-28T05:41:14;2.40;99.90
2977;DHT22;1498;51.500;7.440;2023-02-28T05:43:39;2.40;99.90
2977;DHT22;1498;51.500;7.440;2023-02-28T05:46:06;2.30;99.90
2977;DHT22;1498;51.500;7.440;2023-02-28T05:48:34;2.40;99.90
2977;DHT22;1498;51.500;7.440;2023-02-28T05:50:59;2.40;99.90
2977;DHT22;1498;51.500;7.440;2023-02-28T05:53:25;2.40;99.90
2977;DHT22;1498;51.500;7.440;2023-02-28T05:55:51;2.40;99.90
2977;DHT22;1498;51.500;7.440;2023-02-28T05:58:17;2.40;99.90
2977;DHT22;1498;51.500;7.440;2023-02-28T06:00:42;2.40;99.90
2977;DHT22;1498;51.500;7.440;2023-02-28T06:03:08;2.30;99.90
2977;DHT22;1498;51.500;7.440;2023-02-28T06:05:33;2.30;99.90
2977;DHT22;1498;51.500;7.440;2023-02-28T06:07:59;2.20;99.90
2977;DHT22;1498;51.500;7.440;2023-02-28T06:10:25;2.10;99.90
2977;DHT22;1498;51.500;7.440;2023-02-28T06:12:50;2.10;99.90
2977;DHT22;1498;51.500;7.440;2023-02-28T06:15:16;2.00;99.90
2977;DHT22;1498;51.500;7.440;2023-02-28T06:17:43;2.00;99.90
2977;DHT22;1498;51.500;7.440;2023-02-28T06:20:10;2.00;99.90
2977;DHT22;1498;51.500;7.440;2023-02-28T06:22:38;2.10;99.90
2977;DHT22;1498;51.500;7.440;2023-02-28T06:25:04;2.00;99.90
2977;DHT22;1498;51.500;7.440;2023-02-28T06:27:32;2.00;99.90
2977;DHT22;1498;51.500;7.440;2023-02-28T06:29:57;2.00;99.90
2977;DHT22;1498;51.500;7.440;2023-02-28T06:32:23;2.00;99.90
2977;DHT22;1498;51.500;7.440;2023-02-28T06:34:48;2.00;99.90
2977;DHT22;1498;51.500;7.440;2023-02-28T06:37:16;2.10;99.90
2977;DHT22;1498;51.500;7.440;2023-02-28T06:39:41;2.30;99.90
2977;DHT22;1498;51.500;7.440;2023-02-28T06:42:07;2.40;99.90
2977;DHT22;1498;51.500;7.440;2023-02-28T06:44:32;2.30;99.90
2977;DHT22;1498;51.500;7.440;2023-02-28T06:47:01;2.20;99.90
2977;DHT22;1498;51.500;7.440;2023-02-28T06:49:29;2.20;99.90
2977;DHT22;1498;51.500;7.440;2023-02-28T06:51:54;2.20;99.90
2977;DHT22;1498;51.500;7.440;2023-02-28T06:54:20;2.20;99.90
2977;DHT22;1498;51.500;7.440;2023-02-28T06:56:45;2.20;99.90
2977;DHT22;1498;51.500;7.440;2023-02-28T06:59:12;2.30;99.90
2977;DHT22;1498;51.500;7.440;2023-02-28T07:01:38;2.50;99.90
2977;DHT22;1498;51.500;7.440;2023-02-28T07:04:05;2.50;99.90
2977;DHT22;1498;51.500;7.440;2023-02-28T07:06:31;2.50;99.90
2977;DHT22;1498;51.500;7.440;2023-02-28T07:08:56;2.50;99.90
2977;DHT22;1498;51.500;7.440;2023-02-28T07:11:24;2.50;99.90
2977;DHT22;1498;51.500;7.440;2023-02-28T07:13:54;2.50;99.90
2977;DHT22;1498;51.500;7.440;2023-02-28T07:16:20;2.50;99.90
2977;DHT22;1498;51.500;7.440;2023-02-28T07:18:46;2.60;99.90
2977;DHT22;1498;51.500;7.440;2023-02-28T07:21:12;2.50;99.90
2977;DHT22;1498;51.500;7.440;2023-02-28T07:23:38;2.50;99.90
2977;DHT22;1498;51.500;7.440;2023-02-28T07:26:05;2.60;99.90
2977;DHT22;1498;51.500;7.440;2023-02-28T07:28:30;2.60;99.90
2977;DHT22;1498;51.500;7.440;2023-02-28T07:30:56;2.50;99.90
2977;DHT22;1498;51.500;7.440;2023-02-28T07:33:22;2.60;99.90
2977;DHT22;1498;51.500;7.440;2023-02-28T07:35:49;2.60;99.90
2977;DHT22;1498;51.500;7.440;2023-02-28T07:38:15;2.60;99.90
2977;DHT22;1498;51.500;7.440;2023-02-28T07:40:40;2.50;99.90
2977;DHT22;1498;51.500;7.440;2023-02-28T07:43:06;2.50;99.90
2977;DHT22;1498;51.500;7.440;2023-02-28T07:45:32;2.50;99.90
2977;DHT22;1498;51.500;7.440;2023-02-28T07:48:00;2.50;99.90
2977;DHT22;1498;51.500;7.440;2023-02-28T07:50:25;2.40;99.90
2977;DHT22;1498;51.500;7.440;2023-02-28T07:52:54;2.60;99.90
2977;DHT22;1498;51.500;7.440;2023-02-28T07:55:19;2.80;99.90
2977;DHT22;1498;51.500;7.440;2023-02-28T07:57:45;2.80;99.90
2977;DHT22;1498;51.500;7.440;2023-02-28T08:00:11;2.90;99.90
2977;DHT22;1498;51.500;7.440;2023-02-28T08:02:38;2.80;99.90
2977;DHT22;1498;51.500;7.440;2023-02-28T08:05:04;2.80;99.90
2977;DHT22;1498;51.500;7.440;2023-02-28T08:07:30;2.90;99.90
2977;DHT22;1498;51.500;7.440;2023-02-28T08:09:55;3.20;99.90
2977;DHT22;1498;51.500;7.440;2023-02-28T08:12:21;3.60;99.90
2977;DHT22;1498;51.500;7.440;2023-02-28T08:14:46;4.00;99.90
2977;DHT22;1498;51.500;7.440;2023-02-28T08:17:12;4.40;99.90
2977;DHT22;1498;51.500;7.440;2023-02-28T08:19:37;4.70;99.90
2977;DHT22;1498;51.500;7.440;2023-02-28T08:22:03;4.90;99.90
2977;DHT22;1498;51.500;7.440;2023-02-28T08:24:29;5.20;99.90
2977;DHT22;1498;51.500;7.440;2023-02-28T08:26:55;5.40;98.40
2977;DHT22;1498;51.500;7.440;2023-02-28T08:29:21;5.40;94.30
2977;DHT22;1498;51.500;7.440;2023-02-28T08:31:46;5.20;94.90
2977;DHT22;1498;51.500;7.440;2023-02-28T08:34:14;5.20;95.60
2977;DHT22;1498;51.500;7.440;2023-02-28T08:36:40;5.20;95.30
2977;DHT22;1498;51.500;7.440;2023-02-28T08:39:07;5.30;96.70
2977;DHT22;1498;51.500;7.440;2023-02-28T08:41:33;5.60;96.40
2977;DHT22;1498;51.500;7.440;2023-02-28T08:43:58;5.70;95.50
2977;DHT22;1498;51.500;7.440;2023-02-28T08:46:24;5.80;94.80
2977;DHT22;1498;51.500;7.440;2023-02-28T08:48:54;6.00;94.70
2977;DHT22;1498;51.500;7.440;2023-02-28T08:51:21;6.20;93.20
2977;DHT22;1498;51.500;7.440;2023-02-28T08:53:53;6.20;91.10
2977;DHT22;1498;51.500;7.440;2023-02-28T08:56:20;6.10;90.40
2977;DHT22;1498;51.500;7.440;2023-02-28T08:58:47;6.00;91.30
2977;DHT22;1498;51.500;7.440;2023-02-28T09:01:15;6.00;91.40
2977;DHT22;1498;51.500;7.440;2023-02-28T09:03:42;6.00;91.60
2977;DHT22;1498;51.500;7.440;2023-02-28T09:06:09;6.10;87.40
2977;DHT22;1498;51.500;7.440;2023-02-28T09:08:35;6.00;86.60
2977;DHT22;1498;51.500;7.440;2023-02-28T09:11:01;5.90;86.50
2977;DHT22;1498;51.500;7.440;2023-02-28T09:13:27;5.80;85.50
2977;DHT22;1498;51.500;7.440;2023-02-28T09:15:53;5.70;89.20
2977;DHT22;1498;51.500;7.440;2023-02-28T09:18:19;5.90;89.80
2977;DHT22;1498;51.500;7.440;2023-02-28T09:20:45;6.00;90.50
2977;DHT22;1498;51.500;7.440;2023-02-28T09:23:12;6.10;89.60
2977;DHT22;1498;51.500;7.440;2023-02-28T09:25:40;6.30;83.80
2977;DHT22;1498;51.500;7.440;2023-02-28T09:28:09;6.30;84.40
2977;DHT22;1498;51.500;7.440;2023-02-28T09:30:35;6.20;81.40
2977;DHT22;1498;51.500;7.440;2023-02-28T09:33:00;6.10;83.40
2977;DHT22;1498;51.500;7.440;2023-02-28T09:35:26;6.10;82.90
2977;DHT22;1498;51.500;7.440;2023-02-28T09:37:52;6.00;84.80
2977;DHT22;1498;51.500;7.440;2023-02-28T09:40:19;5.90;87.10
2977;DHT22;1498;51.500;7.440;2023-02-28T09:42:48;6.10;84.90
2977;DHT22;1498;51.500;7.440;2023-02-28T09:48:11;6.40;81.10
2977;DHT22;1498;51.500;7.440;2023-02-28T09:50:55;6.40;81.90
2977;DHT22;1498;51.500;7.440;2023-02-28T09:53:33;6.40;81.30
2977;DHT22;1498;51.500;7.440;2023-02-28T09:56:08;6.40;79.60
2977;DHT22;1498;51.500;7.440;2023-02-28T10:01:43;6.20;78.30
2977;DHT22;1498;51.500;7.440;2023-02-28T10:06:52;5.80;77.70
2977;DHT22;1498;51.500;7.440;2023-02-28T10:09:27;5.60;82.10
2977;DHT22;1498;51.500;7.440;2023-02-28T10:12:00;5.50;80.50
2977;DHT22;1498;51.500;7.440;2023-02-28T10:14:29;5.50;85.40
2977;DHT22;1498;51.500;7.440;2023-02-28T10:22:11;5.70;82.60
2977;DHT22;1498;51.500;7.440;2023-02-28T10:27:16;5.80;78.40
2977;DHT22;1498;51.500;7.440;2023-02-28T10:29:48;5.90;82.70
2977;DHT22;1498;51.500;7.440;2023-02-28T10:32:17;6.00;75.20
2977;DHT22;1498;51.500;7.440;2023-02-28T10:34:43;6.00;78.60
2977;DHT22;1498;51.500;7.440;2023-02-28T10:37:10;6.10;73.50
2977;DHT22;1498;51.500;7.440;2023-02-28T10:39:40;6.20;73.50
2977;DHT22;1498;51.500;7.440;2023-02-28T10:42:20;6.20;71.30
2977;DHT22;1498;51.500;7.440;2023-02-28T10:44:45;6.20;71.00
2977;DHT22;1498;51.500;7.440;2023-02-28T10:47:17;6.30;73.50
2977;DHT22;1498;51.500;7.440;2023-02-28T10:49:49;6.40;70.80
2977;DHT22;1498;51.500;7.440;2023-02-28T10:52:36;6.40;70.00
2977;DHT22;1498;51.500;7.440;2023-02-28T10:55:21;6.40;69.90
2977;DHT22;1498;51.500;7.440;2023-02-28T10:57:48;6.50;71.50
2977;DHT22;1498;51.500;7.440;2023-02-28T11:00:20;6.60;70.20
2977;DHT22;1498;51.500;7.440;2023-02-28T11:02:47;6.50;68.60
2977;DHT22;1498;51.500;7.440;2023-02-28T11:05:34;6.50;68.60
2977;DHT22;1498;51.500;7.440;2023-02-28T11:08:10;6.40;72.40
2977;DHT22;1498;51.500;7.440;2023-02-28T11:10:38;6.60;68.30
2977;DHT22;1498;51.500;7.440;2023-02-28T11:13:04;6.70;69.40
2977;DHT22;1498;51.500;7.440;2023-02-28T11:15:33;6.60;68.00
2977;DHT22;1498;51.500;7.440;2023-02-28T11:18:14;6.70;72.10
2977;DHT22;1498;51.500;7.440;2023-02-28T11:20:48;6.80;67.00
2977;DHT22;1498;51.500;7.440;2023-02-28T11:23:16;6.70;70.40
2977;DHT22;1498;51.500;7.440;2023-02-28T11:25:50;6.80;70.70
2977;DHT22;1498;51.500;7.440;2023-02-28T11:28:36;7.00;66.40
2977;DHT22;1498;51.500;7.440;2023-02-28T11:33:50;6.80;66.10
2977;DHT22;1498;51.500;7.440;2023-02-28T11:38:50;6.80;68.00
2977;DHT22;1498;51.500;7.440;2023-02-28T11:46:54;6.90;71.60
2977;DHT22;1498;51.500;7.440;2023-02-28T11:49:35;7.00;70.00
2977;DHT22;1498;51.500;7.440;2023-02-28T11:52:33;7.20;70.30
2977;DHT22;1498;51.500;7.440;2023-02-28T11:55:09;7.30;63.60
2977;DHT22;1498;51.500;7.440;2023-02-28T12:01:01;7.60;62.50
2977;DHT22;1498;51.500;7.440;2023-02-28T12:06:22;7.40;61.70
2977;DHT22;1498;51.500;7.440;2023-02-28T12:09:04;7.40;65.90
2977;DHT22;1498;51.500;7.440;2023-02-28T12:14:50;7.70;61.70
2977;DHT22;1498;51.500;7.440;2023-02-28T12:25:55;8.40;68.00
2977;DHT22;1498;51.500;7.440;2023-02-28T12:27:55;8.70;63.00
2977;DHT22;1498;51.500;7.440;2023-02-28T12:30:32;9.00;61.00
2977;DHT22;1498;51.500;7.440;2023-02-28T12:33:12;9.10;58.30
2977;DHT22;1498;51.500;7.440;2023-02-28T12:35:56;9.20;58.90
2977;DHT22;1498;51.500;7.440;2023-02-28T12:38:29;9.50;58.70
2977;DHT22;1498;51.500;7.440;2023-02-28T12:40:58;9.30;56.70
2977;DHT22;1498;51.500;7.440;2023-02-28T12:43:30;9.20;56.90
2977;DHT22;1498;51.500;7.440;2023-02-28T12:46:10;8.90;56.90
2977;DHT22;1498;51.500;7.440;2023-02-28T12:51:12;8.70;57.30
2977;DHT22;1498;51.500;7.440;2023-02-28T12:59:25;8.70;58.40
2977;DHT22;1498;51.500;7.440;2023-02-28T13:05:01;8.90;57.10
2977;DHT22;1498;51.500;7.440;2023-02-28T13:10:15;8.80;57.50
2977;DHT22;1498;51.500;7.440;2023-02-28T13:12:50;8.70;57.60
2977;DHT22;1498;51.500;7.440;2023-02-28T13:15:25;8.60;57.60
2977;DHT22;1498;51.500;7.440;2023-02-28T13:17:56;8.50;58.20
2977;DHT22;1498;51.500;7.440;2023-02-28T13:20:29;8.50;60.00
2977;DHT22;1498;51.500;7.440;2023-02-28T13:22:57;8.60;62.30
2977;DHT22;1498;51.500;7.440;2023-02-28T13:27:53;8.80;64.30
2977;DHT22;1498;51.500;7.440;2023-02-28T13:36:28;8.70;58.60
2977;DHT22;1498;51.500;7.440;2023-02-28T13:39:00;8.60;59.00
2977;DHT22;1498;51.500;7.440;2023-02-28T13:46:31;8.60;64.30
2977;DHT22;1498;51.500;7.440;2023-02-28T13:49:00;8.70;65.10
2977;DHT22;1498;51.500;7.440;2023-02-28T13:52:27;8.80;62.40
2977;DHT22;1498;51.500;7.440;2023-02-28T13:54:58;8.70;64.00
2977;DHT22;1498;51.500;7.440;2023-02-28T14:00:52;8.70;65.00
2977;DHT22;1498;51.500;7.440;2023-02-28T14:06:51;8.90;66.50
2977;DHT22;1498;51.500;7.440;2023-02-28T14:09:37;9.00;66.10
2977;DHT22;1498;51.500;7.440;2023-02-28T14:18:03;9.20;64.10
2977;DHT22;1498;51.500;7.440;2023-02-28T14:20:31;9.30;62.30
2977;DHT22;1498;51.500;7.440;2023-02-28T14:28:13;9.20;62.10
2977;DHT22;1498;51.500;7.440;2023-02-28T14:36:39;9.20;62.00
2977;DHT22;1498;51.500;7.440;2023-02-28T14:39:15;9.10;62.30
2977;DHT22;1498;51.500;7.440;2023-02-28T14:41:43;9.20;62.10
2977;DHT22;1498;51.500;7.440;2023-02-28T14:44:24;9.10;61.90
2977;DHT22;1498;51.500;7.440;2023-02-28T14:46:55;9.20;62.80
2977;DHT22;1498;51.500;7.440;2023-02-28T14:51:49;9.30;61.80
2977;DHT22;1498;51.500;7.440;2023-02-28T14:54:17;9.30;59.30
2977;DHT22;1498;51.500;7.440;2023-02-28T14:56:49;9.20;59.00
2977;DHT22;1498;51.500;7.440;2023-02-28T14:59:26;8.90;61.70
2977;DHT22;1498;51.500;7.440;2023-02-28T15:01:52;8.90;62.10
2977;DHT22;1498;51.500;7.440;2023-02-28T15:04:27;9.00;62.40
2977;DHT22;1498;51.500;7.440;2023-02-28T15:07:13;9.10;60.00
2977;DHT22;1498;51.500;7.440;2023-02-28T15:09:39;9.00;59.00
2977;DHT22;1498;51.500;7.440;2023-02-28T15:12:04;8.80;59.80
2977;DHT22;1498;51.500;7.440;2023-02-28T15:14:31;8.70;60.90
2977;DHT22;1498;51.500;7.440;2023-02-28T15:17:00;8.70;61.60
2977;DHT22;1498;51.500;7.440;2023-02-28T15:19:32;8.60;61.10
2977;DHT22;1498;51.500;7.440;2023-02-28T15:22:02;8.70;61.70
2977;DHT22;1498;51.500;7.440;2023-02-28T15:24:42;8.90;59.60
2977;DHT22;1498;51.500;7.440;2023-02-28T15:29:48;8.60;61.50
2977;DHT22;1498;51.500;7.440;2023-02-28T15:34:56;8.40;61.90
2977;DHT22;1498;51.500;7.440;2023-02-28T15:37:53;8.40;61.50
2977;DHT22;1498;51.500;7.440;2023-02-28T15:40:27;8.60;59.80
2977;DHT22;1498;51.500;7.440;2023-02-28T15:43:11;8.50;60.80
2977;DHT22;1498;51.500;7.440;2023-02-28T15:45:59;8.30;64.40
2977;DHT22;1498;51.500;7.440;2023-02-28T15:48:44;8.10;66.60
2977;DHT22;1498;51.500;7.440;2023-02-28T15:51:18;8.10;67.50
2977;DHT22;1498;51.500;7.440;2023-02-28T15:53:51;8.20;67.20
2977;DHT22;1498;51.500;7.440;2023-02-28T15:56:44;8.10;66.50
2977;DHT22;1498;51.500;7.440;2023-02-28T15:59:19;7.90;68.10
2977;DHT22;1498;51.500;7.440;2023-02-28T16:01:46;7.90;67.80
2977;DHT22;1498;51.500;7.440;2023-02-28T16:04:19;8.00;65.70
2977;DHT22;1498;51.500;7.440;2023-02-28T16:07:05;8.00;65.60
2977;DHT22;1498;51.500;7.440;2023-02-28T16:09:31;7.80;65.90
2977;DHT22;1498;51.500;7.440;2023-02-28T16:12:00;7.70;68.30
2977;DHT22;1498;51.500;7.440;2023-02-28T16:14:30;7.50;69.10
2977;DHT22;1498;51.500;7.440;2023-02-28T16:17:09;7.40;69.20
2977;DHT22;1498;51.500;7.440;2023-02-28T16:19:39;7.40;66.90
2977;DHT22;1498;51.500;7.440;2023-02-28T16:22:04;7.30;69.40
2977;DHT22;1498;51.500;7.440;2023-02-28T16:24:30;7.40;70.20
2977;DHT22;1498;51.500;7.440;2023-02-28T16:26:56;7.40;70.70
2977;DHT22;1498;51.500;7.440;2023-02-28T16:29:28;7.30;70.60
2977;DHT22;1498;51.500;7.440;2023-02-28T16:31:55;7.30;70.40
2977;DHT22;1498;51.500;7.440;2023-02-28T16:34:21;7.30;71.20
2977;DHT22;1498;51.500;7.440;2023-02-28T16:36:48;7.30;71.70
2977;DHT22;1498;51.500;7.440;2023-02-28T16:39:14;7.40;71.10
2977;DHT22;1498;51.500;7.440;2023-02-28T16:41:43;7.40;70.60
2977;DHT22;1498;51.500;7.440;2023-02-28T16:44:13;7.40;71.40
2977;DHT22;1498;51.500;7.440;2023-02-28T16:46:39;7.30;72.30
2977;DHT22;1498;51.500;7.440;2023-02-28T16:49:10;7.30;72.30
2977;DHT22;1498;51.500;7.440;2023-02-28T16:51:36;7.30;73.00
2977;DHT22;1498;51.500;7.440;2023-02-28T16:54:01;7.20;72.90
2977;DHT22;1498;51.500;7.440;2023-02-28T16:56:27;7.20;73.00
2977;DHT22;1498;51.500;7.440;2023-02-28T16:58:56;7.30;73.30
2977;DHT22;1498;51.500;7.440;2023-02-28T17:01:23;7.30;72.20
2977;DHT22;1498;51.500;7.440;2023-02-28T17:03:49;7.30;71.80
2977;DHT22;1498;51.500;7.440;2023-02-28T17:06:18;7.10;74.90
2977;DHT22;1498;51.500;7.440;2023-02-28T17:08:45;7.20;74.00
2977;DHT22;1498;51.500;7.440;2023-02-28T17:11:10;7.10;75.20
2977;DHT22;1498;51.500;7.440;2023-02-28T17:13:36;7.00;75.00
2977;DHT22;1498;51.500;7.440;2023-02-28T17:16:02;7.00;75.50
2977;DHT22;1498;51.500;7.440;2023-02-28T17:18:28;6.90;75.80
2977;DHT22;1498;51.500;7.440;2023-02-28T17:20:59;7.00;75.60
2977;DHT22;1498;51.500;7.440;2023-02-28T17:23:25;7.10;74.40
2977;DHT22;1498;51.500;7.440;2023-02-28T17:25:50;7.00;75.50
2977;DHT22;1498;51.500;7.440;2023-02-28T17:28:20;7.00;76.10
2977;DHT22;1498;51.500;7.440;2023-02-28T17:30:47;6.90;76.10
2977;DHT22;1498;51.500;7.440;2023-02-28T17:33:13;6.80;77.00
2977;DHT22;1498;51.500;7.440;2023-02-28T17:35:38;6.70;77.80
2977;DHT22;1498;51.500;7.440;2023-02-28T17:38:04;6.60;79.50
2977;DHT22;1498;51.500;7.440;2023-02-28T17:40:29;6.60;79.70
2977;DHT22;1498;51.500;7.440;2023-02-28T17:42:55;6.50;79.70
2977;DHT22;1498;51.500;7.440;2023-02-28T17:45:22;6.50;80.10
2977;DHT22;1498;51.500;7.440;2023-02-28T17:47:49;6.40;80.80
2977;DHT22;1498;51.500;7.440;2023-02-28T17:50:20;6.40;81.30
2977;DHT22;1498;51.500;7.440;2023-02-28T17:52:46;6.40;81.50
2977;DHT22;1498;51.500;7.440;2023-02-28T17:55:12;6.40;81.90
2977;DHT22;1498;51.500;7.440;2023-02-28T17:57:37;6.40;82.70
2977;DHT22;1498;51.500;7.440;2023-02-28T18:00:04;6.30;83.00
2977;DHT22;1498;51.500;7.440;2023-02-28T18:02:32;6.30;83.90
2977;DHT22;1498;51.500;7.440;2023-02-28T18:04:57;6.30;84.40
2977;DHT22;1498;51.500;7.440;2023-02-28T18:07:24;6.20;84.70
2977;DHT22;1498;51.500;7.440;2023-02-28T18:09:50;6.20;84.60
2977;DHT22;1498;51.500;7.440;2023-02-28T18:12:15;6.20;84.20
2977;DHT22;1498;51.500;7.440;2023-02-28T18:14:41;6.20;84.90
2977;DHT22;1498;51.500;7.440;2023-02-28T18:17:09;6.20;85.00
2977;DHT22;1498;51.500;7.440;2023-02-28T18:19:37;6.20;85.60
2977;DHT22;1498;51.500;7.440;2023-02-28T18:22:03;6.10;86.20
2977;DHT22;1498;51.500;7.440;2023-02-28T18:24:31;6.10;86.60
2977;DHT22;1498;51.500;7.440;2023-02-28T18:26:57;6.10;87.50
2977;DHT22;1498;51.500;7.440;2023-02-28T18:29:26;6.00;88.50
2977;DHT22;1498;51.500;7.440;2023-02-28T18:31:53;6.00;88.80
2977;DHT22;1498;51.500;7.440;2023-02-28T18:34:19;6.00;89.50
2977;DHT22;1498;51.500;7.440;2023-02-28T18:36:46;6.00;89.30
2977;DHT22;1498;51.500;7.440;2023-02-28T18:39:14;5.90;89.40
2977;DHT22;1498;51.500;7.440;2023-02-28T18:41:40;5.90;89.00
2977;DHT22;1498;51.500;7.440;2023-02-28T18:44:06;5.90;89.00
2977;DHT22;1498;51.500;7.440;2023-02-28T18:46:31;5.90;89.40
2977;DHT22;1498;51.500;7.440;2023-02-28T18:48:57;5.90;88.90
2977;DHT22;1498;51.500;7.440;2023-02-28T18:51:24;5.90;89.00
2977;DHT22;1498;51.500;7.440;2023-02-28T18:53:51;5.80;90.00
2977;DHT22;1498;51.500;7.440;2023-02-28T18:56:19;5.80;90.20
2977;DHT22;1498;51.500;7.440;2023-02-28T18:58:45;5.80;90.60
2977;DHT22;1498;51.500;7.440;2023-02-28T19:01:17;5.80;90.60
2977;DHT22;1498;51.500;7.440;2023-02-28T19:03:44;5.80;90.40
2977;DHT22;1498;51.500;7.440;2023-02-28T19:06:10;5.80;90.60
2977;DHT22;1498;51.500;7.440;2023-02-28T19:08:35;5.70;90.80
2977;DHT22;1498;51.500;7.440;2023-02-28T19:11:15;5.70;90.90
2977;DHT22;1498;51.500;7.440;2023-02-28T19:13:41;5.60;91.70
2977;DHT22;1498;51.500;7.440;2023-02-28T19:16:09;5.60;91.90
2977;DHT22;1498;51.500;7.440;2023-02-28T19:18:35;5.60;91.90
2977;DHT22;1498;51.500;7.440;2023-02-28T19:21:01;5.60;91.80
2977;DHT22;1498;51.500;7.440;2023-02-28T19:23:27;5.60;91.80
2977;DHT22;1498;51.500;7.440;2023-02-28T19:25:53;5.60;92.00
2977;DHT22;1498;51.500;7.440;2023-02-28T19:28:18;5.60;92.20
2977;DHT22;1498;51.500;7.440;2023-02-28T19:30:48;5.60;92.30
2977;DHT22;1498;51.500;7.440;2023-02-28T19:33:15;5.60;92.40
2977;DHT22;1498;51.500;7.440;2023-02-28T19:35:40;5.60;92.60
2977;DHT22;1498;51.500;7.440;2023-02-28T19:38:07;5.60;92.80
2977;DHT22;1498;51.500;7.440;2023-02-28T19:40:33;5.60;92.80
2977;DHT22;1498;51.500;7.440;2023-02-28T19:42:59;5.50;92.70
2977;DHT22;1498;51.500;7.440;2023-02-28T19:45:24;5.50;92.80
2977;DHT22;1498;51.500;7.440;2023-02-28T19:47:50;5.50;92.90
2977;DHT22;1498;51.500;7.440;2023-02-28T19:50:16;5.50;93.60
2977;DHT22;1498;51.500;7.440;2023-02-28T19:52:41;5.50;93.40
2977;DHT22;1498;51.500;7.440;2023-02-28T19:55:08;5.50;93.20
2977;DHT22;1498;51.500;7.440;2023-02-28T19:57:34;5.50;93.50
2977;DHT22;1498;51.500;7.440;2023-02-28T20:00:00;5.50;93.50
2977;DHT22;1498;51.500;7.440;2023-02-28T20:02:25;5.50;93.50
2977;DHT22;1498;51.500;7.440;2023-02-28T20:04:51;5.40;93.50
2977;DHT22;1498;51.500;7.440;2023-02-28T20:07:19;5.40;93.90
2977;DHT22;1498;51.500;7.440;2023-02-28T20:09:47;5.40;94.10
2977;DHT22;1498;51.500;7.440;2023-02-28T20:12:13;5.30;93.80
2977;DHT22;1498;51.500;7.440;2023-02-28T20:14:41;5.30;94.10
2977;DHT22;1498;51.500;7.440;2023-02-28T20:17:07;5.30;94.10
2977;DHT22;1498;51.500;7.440;2023-02-28T20:19:32;5.20;94.30
2977;DHT22;1498;51.500;7.440;2023-02-28T20:21:58;5.20;94.80
2977;DHT22;1498;51.500;7.440;2023-02-28T20:24:25;5.20;95.10
2977;DHT22;1498;51.500;7.440;2023-02-28T20:26:51;5.20;95.20
2977;DHT22;1498;51.500;7.440;2023-02-28T20:29:17;5.00;95.30
2977;DHT22;1498;51.500;7.440;2023-02-28T20:31:43;5.00;95.70
2977;DHT22;1498;51.500;7.440;2023-02-28T20:34:09;5.00;95.70
2977;DHT22;1498;51.500;7.440;2023-02-28T20:36:36;4.90;96.00
2977;DHT22;1498;51.500;7.440;2023-02-28T20:39:02;4.90;96.30